To NAV CANADA Home Page Login to a new session Search on AWWS site Disclaimer Vers la page française équivalente Tips FAQ What's new on the site To the Forecasts and Observations / NOTAM section To "File a Flight Plan" website Publications and other links Update of the User's profile FIC Telephone Numbers My Weather Data Folder Route Weather Data Regional Weather Data Local Weather Data To the Forecasts and Observations / NOTAM section
Request Generated 10/20/2021 at 20:57:40 UTC . Weather information available at that time is displayed.

METAR/TAF

If you find any discrepancies between the coded METAR/TAF and the plain language METAR/TAF please use the coded METAR/TAF. LWIS bulletins are not decoded in plain language.

TORONTO/LESTER B. PEARSON INTL/ON    

METAR CYYZ 202000Z 24015KT 15SM FEW080 BKN095 BKN140 19/10 A2998 RMK ACC1AC5AC1 CC TR SLP156 DENSITY ALT 1100FT=
METAR
LOCATION
CYYZ - TORONTO/LESTER B. PEARSON INTL/ON
DATE - TIME
20 OCTOBER 2021 - 2000 UTC
WIND
240 TRUE @ 15  KNOTS
VISIBILITY
15 STAT.  MILES
RUNWAY VISUAL RANGE
WEATHER
CLOUDINESS
FEW CLOUDS (1/8 - 2/8) 8000  FT
BROKEN CLOUDS (5/8 - 7/8) 9500  FT
BROKEN CLOUDS (5/8 - 7/8) 14000  FT
TEMP / DEWPOINT
19 C / 10 C
ALTIMETER
29.98 IN HG
RECENT WEATHER
WIND SHEAR

METAR CYYZ 201900Z 22009KT 15SM FEW075 BKN110 19/12 A2999 RMK ACC1AC5 SLP159 DE ITY ALT 1100FT=
METAR
LOCATION
CYYZ - TORONTO/LESTER B. PEARSON INTL/ON
DATE - TIME
20 OCTOBER 2021 - 1900 UTC
WIND
220 TRUE @ 9  KNOTS
VISIBILITY
15 STAT.  MILES
RUNWAY VISUAL RANGE
WEATHER
CLOUDINESS
FEW CLOUDS (1/8 - 2/8) 7500  FT
BROKEN CLOUDS (5/8 - 7/8) 11000  FT
TEMP / DEWPOINT
19 C / 12 C
ALTIMETER
29.99 IN HG
RECENT WEATHER
WIND SHEAR

METAR CYYZ 201800Z 21006KT 190V250 15SM FEW065 BKN110 BKN140 17/11 A3001 RMK CU C5AC1 CU TR SLP164 DENSITY ALT 900FT=
METAR
LOCATION
CYYZ - TORONTO/LESTER B. PEARSON INTL/ON
DATE - TIME
20 OCTOBER 2021 - 1800 UTC
WIND
210 TRUE @ 6  KNOTS
VARIATION
190 <-> 250  DEG
VISIBILITY
15 STAT.  MILES
RUNWAY VISUAL RANGE
WEATHER
CLOUDINESS
FEW CLOUDS (1/8 - 2/8) 6500  FT
BROKEN CLOUDS (5/8 - 7/8) 11000  FT
BROKEN CLOUDS (5/8 - 7/8) 14000  FT
TEMP / DEWPOINT
17 C / 11 C
ALTIMETER
30.01 IN HG
RECENT WEATHER
WIND SHEAR

TAF CYYZ 202038Z 2021/2124 24010KT P6SM BKN100 BECMG 2100/2102 26005KT FM210500 15005KT P6SM FEW060 BKN100 TEMPO 2105/2110 P6SM -SHRA BECMG 2110/2112 20010KT FM211500 22010G20KT P6SM BKN020 BKN090 TEMPO 2115/2121 P6SM -SHRA FM212100 22012G22KT P6SM -SHRA BKN015 BKN050 RMK NXT FCST BY 210000Z=
TAF
LOCATION

CYYZ - TORONTO/LESTER B. PEARSON INTL/ON
VALIDITY [UTC]
20 OCT - 2038 to
22 OCT - 0000
 
TIMES
[UTC]
WIND
[DEGREES TRUE]
VISIBILITY
[STAT. MILES]
WEATHER
CLOUDINESS
[FEET AGL]
 
20 OCT - 2100 to
21 OCT - 0500
240 @ 10 KNOTS
6+
NIL
10000 BROKEN
BECOMING
21 OCT - 0000 to
21 OCT - 0200
260 @ 5 KNOTS
 
 
 
 
21 OCT - 0500 to
21 OCT - 1500
150 @ 5 KNOTS
6+
NIL
6000 FEW
10000 BROKEN
TEMPORARY CHANGES
21 OCT - 0500 to
21 OCT - 1000
 
6+
LIGHT RAIN SHOWER
 
BECOMING
21 OCT - 1000 to
21 OCT - 1200
200 @ 10 KNOTS
 
 
 
 
21 OCT - 1500 to
21 OCT - 2100
220 @ 10 KNOTS
GUSTS 20 KNOTS
6+
NIL
2000 BROKEN
9000 BROKEN
TEMPORARY CHANGES
21 OCT - 1500 to
21 OCT - 2100
 
6+
LIGHT RAIN SHOWER
 
 
21 OCT - 2100 to
22 OCT - 0000
220 @ 12 KNOTS
GUSTS 22 KNOTS
6+
LIGHT RAIN SHOWER
1500 BROKEN
5000 BROKEN
REMARKS
THE NEXT FORECAST WILL BE ISSUED BY 0000 UTC ON DAY 21


Your time UTC time
Weather data provided by Environment Canada and NAV CANADA